createdAt,value
2022-11-18T00:00:57.303Z,76.99
2022-11-18T00:01:57.653Z,77.09
2022-11-18T00:02:58.003Z,77.21
2022-11-18T00:03:58.231Z,77.47
2022-11-18T00:04:58.620Z,76.87
2022-11-18T00:05:59.356Z,76.22
2022-11-18T00:06:59.347Z,76.56
2022-11-18T00:07:59.876Z,77.39
2022-11-18T00:09:00.293Z,76.74
2022-11-18T00:10:00.704Z,76.76
2022-11-18T00:11:07.285Z,76.43
2022-11-18T00:12:05.752Z,76.38
2022-11-18T00:13:05.744Z,76.18
2022-11-18T00:14:11.885Z,76.94
2022-11-18T00:15:11.388Z,76.74
2022-11-18T00:16:13.026Z,77.19
2022-11-18T00:17:11.004Z,77.24
2022-11-18T00:18:11.200Z,77.6
2022-11-18T00:19:11.927Z,77.07
2022-11-18T00:20:12.446Z,76.96
2022-11-18T00:21:13.071Z,77.75
2022-11-18T00:22:14.106Z,77.53
2022-11-18T00:23:13.604Z,77.96
2022-11-18T00:24:13.919Z,77.54
2022-11-18T00:25:14.421Z,77.53
2022-11-18T00:26:15.177Z,77.96
2022-11-18T00:27:15.252Z,77.68
2022-11-18T00:28:15.379Z,77.99
2022-11-18T00:29:16.727Z,78.42
2022-11-18T00:30:16.392Z,78.87
2022-11-18T00:31:16.609Z,78.31
2022-11-18T00:32:17.227Z,78.52
2022-11-18T00:33:17.593Z,78.79
2022-11-18T00:34:19.104Z,79.34
2022-11-18T00:35:18.311Z,78.96
2022-11-18T00:36:18.786Z,78.84
2022-11-18T00:37:19.214Z,78.95
2022-11-18T00:38:19.724Z,78.95
2022-11-18T00:39:21.229Z,78.72
2022-11-18T00:40:20.152Z,78.96
2022-11-18T00:41:20.874Z,78.8
2022-11-18T00:42:21.217Z,78.74
2022-11-18T00:43:21.613Z,79.15
2022-11-18T00:44:22.032Z,79.3
2022-11-18T00:45:23.258Z,79.46
2022-11-18T00:46:22.868Z,79.23
2022-11-18T00:47:23.164Z,79.71
2022-11-18T00:48:23.894Z,79.69
2022-11-18T00:49:24.103Z,79.69
2022-11-18T00:50:24.313Z,79.35
2022-11-18T00:51:24.827Z,79.07
2022-11-18T00:52:25.955Z,79.32
2022-11-18T00:53:27.823Z,79.32
2022-11-18T00:54:26.708Z,79.14
2022-11-18T00:55:27.110Z,79.07
2022-11-18T00:56:27.246Z,79.33
2022-11-18T00:57:27.975Z,79.28
2022-11-18T00:58:28.380Z,79.58
2022-11-18T00:59:28.783Z,79.88
2022-11-18T01:00:29.197Z,79.22
2022-11-18T01:01:29.678Z,79.53
2022-11-18T01:02:30.132Z,79.98
2022-11-18T01:03:31.458Z,79.67
2022-11-18T01:04:31.374Z,79.52
2022-11-18T01:05:31.373Z,79.93
2022-11-18T01:06:31.813Z,80
2022-11-18T01:07:32.137Z,80.31
2022-11-18T01:08:32.415Z,80.37
2022-11-18T01:09:32.938Z,80.03
2022-11-18T01:10:33.395Z,80.37
2022-11-18T01:11:33.772Z,79.98
2022-11-18T01:12:34.203Z,80.35
2022-11-18T01:13:34.502Z,80.54
2022-11-18T01:14:34.912Z,80.66
2022-11-18T01:15:43.524Z,80.79
2022-11-18T01:16:36.465Z,80.63
2022-11-18T01:17:36.983Z,81.21
2022-11-18T01:18:37.300Z,81
2022-11-18T01:19:38.028Z,81.11
2022-11-18T01:20:38.335Z,81.06
2022-11-18T01:21:38.543Z,81.83
2022-11-18T01:22:39.070Z,81.37
2022-11-18T01:23:39.686Z,81.7
2022-11-18T01:24:39.575Z,80.91
2022-11-18T01:25:42.700Z,80.72
2022-11-18T01:26:40.734Z,81.26
2022-11-18T01:27:40.977Z,81.26
2022-11-18T01:28:41.773Z,81.09
2022-11-18T01:29:42.290Z,81.39
2022-11-18T01:30:42.701Z,81.34
2022-11-18T01:32:08.728Z,81.36
2022-11-18T01:32:46.088Z,80.48
2022-11-18T01:33:47.423Z,80.75
2022-11-18T01:34:46.609Z,80.57
2022-11-18T01:35:46.723Z,80.19
2022-11-18T01:36:47.451Z,80.04
2022-11-18T01:37:47.668Z,80.83
2022-11-18T01:38:48.605Z,80.88
2022-11-18T01:39:48.497Z,80.89
2022-11-18T01:40:49.530Z,80.8
2022-11-18T01:41:50.044Z,81.08
2022-11-18T01:42:50.382Z,80.43
2022-11-18T01:45:53.961Z,79.96
2022-11-18T01:46:54.469Z,80.68
2022-11-18T01:49:57.363Z,80.96
2022-11-18T01:51:02.493Z,80.18
2022-11-18T01:52:00.564Z,80.45
2022-11-18T01:53:06.503Z,80.59
2022-11-18T01:54:09.393Z,79.27
2022-11-18T01:56:15.220Z,78.97
2022-11-18T01:57:19.235Z,79.21
2022-11-18T01:58:23.125Z,78.93
2022-11-18T01:59:25.280Z,78.45
2022-11-18T02:00:23.233Z,78.41
2022-11-18T02:01:23.859Z,78.88
2022-11-18T02:02:24.991Z,78.86
2022-11-18T02:03:26.132Z,79.02
2022-11-18T02:04:26.122Z,78.26
2022-11-18T02:05:26.654Z,78.62
2022-11-18T02:06:25.736Z,78.18
2022-11-18T02:07:26.429Z,78.05
2022-11-18T02:08:27.101Z,78.9
2022-11-18T02:09:26.877Z,78.72
2022-11-18T02:10:27.299Z,78.4
2022-11-18T02:11:27.610Z,78.85
2022-11-18T02:12:28.231Z,78.51
2022-11-18T02:13:28.656Z,77.98
2022-11-18T02:14:32.538Z,78.62
2022-11-18T02:29:17.538Z,80.07
2022-11-18T02:30:09.003Z,80.66
2022-11-18T02:31:18.144Z,80.63
2022-11-18T02:32:18.534Z,80.36
2022-11-18T02:33:25.813Z,81.31
2022-11-18T02:41:37.290Z,80.79
2022-11-18T02:42:38.669Z,81.29
2022-11-18T02:43:43.074Z,81.73
2022-11-18T02:44:46.364Z,81.42
2022-11-18T02:45:49.144Z,80.53
2022-11-18T02:46:52.922Z,80.72
2022-11-18T02:47:52.738Z,79.93
2022-11-18T02:48:54.064Z,80.35
2022-11-18T02:50:56.337Z,80.99
2022-11-18T02:51:57.067Z,81.2
2022-11-18T02:53:01.269Z,80.94
2022-11-18T02:54:03.929Z,79.44
2022-11-18T02:55:05.485Z,79.71
2022-11-18T02:56:05.394Z,79.2
2022-11-18T02:57:05.389Z,79.5
2022-11-18T02:58:06.719Z,79.65
2022-11-18T02:59:05.815Z,79.96
2022-11-18T03:00:06.115Z,79.15
2022-11-18T03:01:05.968Z,77.84
2022-11-18T03:02:05.925Z,77.94
2022-11-18T03:04:09.424Z,77.96
2022-11-18T03:08:16.224Z,78.6
2022-11-18T03:10:18.162Z,79.07
2022-11-18T03:11:23.196Z,80.05
2022-11-18T03:21:46.213Z,80.14
2022-11-18T03:29:05.491Z,81.82
2022-11-18T03:30:06.835Z,82.21
2022-11-18T03:32:06.636Z,82
2022-11-18T03:33:12.041Z,82.08
2022-11-18T03:36:19.153Z,82.69
2022-11-18T03:37:19.982Z,82.43
2022-11-18T03:39:22.348Z,82.55
2022-11-18T03:40:25.537Z,82.96
2022-11-18T03:41:27.070Z,83.06
2022-11-18T03:42:31.481Z,83.34
2022-11-18T03:43:35.379Z,83.66
2022-11-18T03:44:38.470Z,83.67
2022-11-18T03:45:44.101Z,84.09
2022-11-18T03:47:45.551Z,83.67
2022-11-18T03:48:50.265Z,82.94
2022-11-18T03:49:55.086Z,83.14
2022-11-18T03:51:58.796Z,82.78
2022-11-18T03:52:57.395Z,83.15
2022-11-18T03:57:16.530Z,82.79
2022-11-18T04:00:16.966Z,82.33
2022-11-18T04:02:24.252Z,82.99
2022-11-18T04:03:22.202Z,83.02
2022-11-18T04:04:25.596Z,82.92
2022-11-18T04:05:23.856Z,82.25
2022-11-18T04:08:37.391Z,81.89
2022-11-18T04:09:35.245Z,82.21
2022-11-18T04:11:42.121Z,82.54
2022-11-18T04:12:39.062Z,82.61
2022-11-18T04:13:38.356Z,81.72
2022-11-18T04:14:42.851Z,82.24
2022-11-18T04:15:42.975Z,82.04
2022-11-18T04:16:43.586Z,81.99
2022-11-18T04:17:42.489Z,81.89
2022-11-18T04:18:42.170Z,82.02
2022-11-18T04:19:42.885Z,82.13
2022-11-18T04:20:42.797Z,81.68
2022-11-18T04:21:43.520Z,82.37
2022-11-18T04:22:43.943Z,82.19
2022-11-18T04:23:44.144Z,82.27
2022-11-18T04:24:44.353Z,82.3
2022-11-18T04:25:45.102Z,82.46
2022-11-18T04:26:45.403Z,81.72
2022-11-18T04:27:45.706Z,81.5
2022-11-18T04:28:46.024Z,81.92
2022-11-18T04:29:46.537Z,82.44
2022-11-18T04:30:46.950Z,81.86
2022-11-18T04:31:47.586Z,82.06
2022-11-18T04:32:47.997Z,81.7
2022-11-18T04:33:48.206Z,81.61
2022-11-18T04:34:48.633Z,81.52
2022-11-18T04:35:48.944Z,81.29
2022-11-18T04:36:49.673Z,81.3
2022-11-18T04:37:49.872Z,82.1
2022-11-18T04:38:50.280Z,82.48
2022-11-18T04:39:51.021Z,81.6
2022-11-18T04:40:51.026Z,82.11
2022-11-18T04:41:52.047Z,81.9
2022-11-18T04:42:52.767Z,81.61
2022-11-18T04:43:53.084Z,81.82
2022-11-18T04:44:53.504Z,81.71
2022-11-18T04:45:53.818Z,82.17
2022-11-18T04:46:55.262Z,81.85
2022-11-18T04:47:58.841Z,81.65
2022-11-18T04:48:55.160Z,82.2
2022-11-18T04:49:55.574Z,82.66
2022-11-18T04:50:58.253Z,81.9
2022-11-18T04:51:56.717Z,81.87
2022-11-18T04:52:57.339Z,82.38
2022-11-18T04:53:57.245Z,81.42
2022-11-18T04:54:57.563Z,81.81
2022-11-18T04:56:04.429Z,81.86
2022-11-18T04:57:02.589Z,81.7
2022-11-18T04:58:02.904Z,81.9
2022-11-18T04:59:04.339Z,81.76
2022-11-18T05:00:04.258Z,82.74
2022-11-18T05:01:04.345Z,82.67
2022-11-18T05:02:04.693Z,82.66
2022-11-18T05:03:04.988Z,82.72
2022-11-18T05:04:06.523Z,82.09
2022-11-18T05:05:06.670Z,80.96
2022-11-18T05:06:06.646Z,81.32
2022-11-18T05:07:07.207Z,81.08
2022-11-18T05:08:07.173Z,80.21
2022-11-18T05:09:07.393Z,80.21
2022-11-18T05:10:08.733Z,80.85
2022-11-18T05:11:09.045Z,79.06
2022-11-18T05:12:12.623Z,78.67
2022-11-18T05:13:13.152Z,79.07
2022-11-18T05:14:11.612Z,79.4
2022-11-18T05:15:11.852Z,78.64
2022-11-18T05:16:12.132Z,75.1
2022-11-18T05:17:12.564Z,75.7
2022-11-18T05:18:12.889Z,74.48
2022-11-18T05:19:13.494Z,74.1
2022-11-18T05:20:14.311Z,75.74
2022-11-18T05:21:14.213Z,74.88
2022-11-18T05:22:15.764Z,75.33
2022-11-18T05:23:14.954Z,75.07
2022-11-18T05:24:15.262Z,75.49
2022-11-18T05:25:15.984Z,75.75
2022-11-18T05:26:16.099Z,75.02
2022-11-18T05:27:16.615Z,75.5
2022-11-18T05:28:17.035Z,75.74
2022-11-18T05:29:19.221Z,75.81
2022-11-18T05:30:18.889Z,75.15
2022-11-18T05:31:19.621Z,74.68
2022-11-18T05:32:18.592Z,73.54
2022-11-18T05:33:19.109Z,74.15
2022-11-18T05:34:19.625Z,73.39
2022-11-18T05:35:19.733Z,73.57
2022-11-18T05:36:21.585Z,73.2
2022-11-18T05:37:20.680Z,71.99
2022-11-18T05:38:21.090Z,72.48
2022-11-18T05:39:21.708Z,72.41
2022-11-18T05:40:21.816Z,72.05
2022-11-18T05:41:22.136Z,71.77
2022-11-18T05:42:22.649Z,71.83
2022-11-18T05:43:23.168Z,71.16
2022-11-18T05:44:23.382Z,71.42
2022-11-18T05:45:23.703Z,71.53
2022-11-18T05:46:24.321Z,72.15
2022-11-18T05:47:24.694Z,71.06
2022-11-18T05:48:25.560Z,71.41
2022-11-18T05:49:26.084Z,72.43
2022-11-18T05:50:25.729Z,72.78
2022-11-18T05:51:26.289Z,71.49
2022-11-18T05:52:26.704Z,71.51
2022-11-18T05:53:26.922Z,71.59
2022-11-18T05:54:28.161Z,70.46
2022-11-18T05:55:37.175Z,70.61
2022-11-18T05:56:36.461Z,70.62
2022-11-18T05:57:34.544Z,70.3
2022-11-18T05:58:34.936Z,70.44
2022-11-18T05:59:35.361Z,69.82
2022-11-18T06:00:36.502Z,71.05
2022-11-18T06:02:43.059Z,69.87
2022-11-18T06:03:42.159Z,70.8
2022-11-18T06:04:47.279Z,70.17
2022-11-18T06:05:45.845Z,69.96
2022-11-18T06:06:48.822Z,70.1
2022-11-18T06:07:47.026Z,71.04
2022-11-18T06:09:54.282Z,70.63
2022-11-18T06:10:53.383Z,71.37
2022-11-18T06:11:57.320Z,71.35
2022-11-18T06:13:01.462Z,71
2022-11-18T06:14:11.966Z,71.54
2022-11-18T06:15:08.362Z,70.89
2022-11-18T06:16:01.587Z,70.44
2022-11-18T06:17:04.864Z,70.49
2022-11-18T06:19:05.902Z,71.69
2022-11-18T06:20:07.745Z,71.22
2022-11-18T06:21:07.041Z,71.28
2022-11-18T06:22:08.495Z,70.92
2022-11-18T06:23:07.255Z,69.8
2022-11-18T06:24:08.381Z,69.8
2022-11-18T06:25:08.699Z,70.86
2022-11-18T06:26:09.015Z,70.97
2022-11-18T06:27:09.030Z,70.67
2022-11-18T06:28:12.408Z,71.18
2022-11-18T06:29:13.755Z,71.08
2022-11-18T06:30:13.030Z,71.67
2022-11-18T06:31:12.433Z,71.97
2022-11-18T06:32:12.540Z,72.19
2022-11-18T06:33:13.050Z,72.19
2022-11-18T06:34:13.580Z,70.77
2022-11-18T06:35:14.190Z,70.16
2022-11-18T06:36:14.194Z,69.83
2022-11-18T06:37:20.456Z,69.99
2022-11-18T06:38:18.512Z,70.21
2022-11-18T06:39:19.182Z,71.18
2022-11-18T06:40:19.449Z,71.25
2022-11-18T06:41:19.656Z,71.13
2022-11-18T06:42:20.465Z,70.65
2022-11-18T06:43:21.213Z,70.26
2022-11-18T06:44:21.725Z,70.23
2022-11-18T06:45:22.055Z,70.92
2022-11-18T06:46:22.458Z,70.78
2022-11-18T06:47:22.870Z,71.12
2022-11-18T06:48:22.988Z,70.47
2022-11-18T06:49:27.520Z,71.01
2022-11-18T06:50:25.865Z,70.75
2022-11-18T06:51:26.891Z,70.57
2022-11-18T06:52:27.105Z,69.43
2022-11-18T06:53:27.324Z,70.48
2022-11-18T06:54:27.944Z,70.67
2022-11-18T06:55:28.249Z,70.29
2022-11-18T06:56:28.887Z,69.71
2022-11-18T06:57:29.803Z,70.1
2022-11-18T06:58:29.501Z,69.27
2022-11-18T06:59:30.027Z,69.95
2022-11-18T07:00:30.582Z,70.81
2022-11-18T07:01:33.051Z,71.4
2022-11-18T07:02:31.161Z,71.04
2022-11-18T07:03:31.471Z,70.33
2022-11-18T07:04:32.817Z,69.52
2022-11-18T07:05:32.408Z,69.98
2022-11-18T07:06:35.283Z,70.63
2022-11-18T07:07:41.749Z,69.88
2022-11-18T07:08:37.043Z,70.18
2022-11-18T07:09:36.806Z,71.12
2022-11-18T07:10:36.335Z,70.26
2022-11-18T07:11:36.651Z,70.35
2022-11-18T07:12:37.062Z,69.44
2022-11-18T07:13:43.217Z,70.19
2022-11-18T07:14:41.687Z,69.8
2022-11-18T07:15:42.241Z,70.25
2022-11-18T07:16:42.717Z,68.9
2022-11-18T07:17:43.035Z,69.12
2022-11-18T07:18:44.584Z,69.26
2022-11-18T07:19:43.665Z,69.42
2022-11-18T07:20:44.284Z,69.61
2022-11-18T07:21:44.392Z,69.84
2022-11-18T07:22:44.907Z,68.83
2022-11-18T07:23:46.204Z,69.07
2022-11-18T07:24:45.751Z,69.71
2022-11-18T07:25:46.258Z,70.63
2022-11-18T07:26:46.476Z,70
2022-11-18T07:27:47.198Z,70.64
2022-11-18T07:28:48.321Z,70.42
2022-11-18T07:29:50.940Z,70.74
2022-11-18T07:30:49.262Z,70.97
2022-11-18T07:31:49.478Z,70.42
2022-11-18T07:32:49.996Z,70.56
2022-11-18T07:33:50.514Z,70.47
2022-11-18T07:34:50.531Z,70.63
2022-11-18T07:35:51.037Z,71.75
2022-11-18T07:36:51.993Z,72.42
2022-11-18T07:37:52.388Z,72.08
2022-11-18T07:38:52.805Z,71.82
2022-11-18T07:39:52.807Z,72.57
2022-11-18T07:40:53.027Z,72.28
2022-11-18T07:41:53.477Z,71.62
2022-11-18T07:42:55.401Z,72.27
2022-11-18T07:44:00.442Z,71.78
2022-11-18T07:44:59.298Z,72.18
2022-11-18T07:45:59.540Z,71.55
2022-11-18T07:47:00.123Z,72.14
2022-11-18T07:48:00.234Z,72.76
2022-11-18T07:49:02.695Z,71.77
2022-11-18T07:50:01.274Z,72.47
2022-11-18T07:51:02.304Z,72.42
2022-11-18T07:52:02.413Z,71.69
2022-11-18T07:53:02.518Z,71.56
2022-11-18T07:54:13.708Z,72.13
2022-11-18T07:55:07.655Z,72.4
2022-11-18T07:56:08.175Z,71.54
2022-11-18T07:57:07.667Z,71.43
2022-11-18T07:58:08.093Z,71.64
2022-11-18T07:59:09.226Z,72.06
2022-11-18T08:00:09.843Z,72.02
2022-11-18T08:01:19.935Z,71.91
2022-11-18T08:02:13.945Z,71.72
2022-11-18T08:03:14.575Z,71.7
2022-11-18T08:04:14.262Z,71.62
2022-11-18T08:05:17.887Z,72.02
2022-11-18T08:06:18.891Z,72.34
2022-11-18T08:07:16.995Z,71.91
2022-11-18T08:08:17.160Z,71.49
2022-11-18T08:09:17.898Z,72.1
2022-11-18T08:10:18.205Z,72.05
2022-11-18T08:11:22.563Z,72.17
2022-11-18T08:12:21.187Z,71.51
2022-11-18T08:13:21.285Z,72.15
2022-11-18T08:14:21.811Z,72.37
2022-11-18T08:15:22.115Z,72.92
2022-11-18T08:16:25.924Z,72.02
2022-11-18T08:17:25.201Z,72.98
2022-11-18T08:18:24.801Z,73.12
2022-11-18T08:19:24.811Z,73.23
2022-11-18T08:20:25.155Z,74.04
2022-11-18T08:21:28.608Z,72.75
2022-11-18T08:22:26.674Z,73.27
2022-11-18T08:23:31.789Z,73.62
2022-11-18T08:24:31.387Z,74.95
2022-11-18T08:25:31.736Z,73.78
2022-11-18T08:26:32.169Z,74.83
2022-11-18T08:27:33.232Z,74.32
2022-11-18T08:28:33.334Z,75.44
2022-11-18T08:29:33.375Z,75.36
2022-11-18T08:30:34.816Z,75.3
2022-11-18T08:31:34.299Z,75.28
2022-11-18T08:32:34.525Z,75.79
2022-11-18T08:33:35.652Z,75.85
2022-11-18T08:34:36.168Z,74.62
2022-11-18T08:35:36.379Z,75.92
2022-11-18T08:36:38.540Z,76.04
2022-11-18T08:37:37.110Z,75.29
2022-11-18T08:38:37.734Z,76.26
2022-11-18T08:39:38.143Z,76.24
2022-11-18T08:40:38.874Z,76.51
2022-11-18T08:41:41.646Z,75.9
2022-11-18T08:42:39.702Z,76.21
2022-11-18T08:43:40.115Z,76.15
2022-11-18T08:44:40.433Z,76.12
2022-11-18T08:45:41.374Z,76.61
2022-11-18T08:46:41.783Z,76.95
2022-11-18T08:47:41.682Z,76.56
2022-11-18T08:48:42.106Z,76.47
2022-11-18T08:49:42.427Z,76.74
2022-11-18T08:50:42.931Z,75.86
2022-11-18T08:51:43.450Z,76.26
2022-11-18T08:52:43.660Z,76.99
2022-11-18T08:53:44.182Z,76.48
2022-11-18T08:54:44.411Z,75.89
2022-11-18T08:55:44.805Z,76.5
2022-11-18T08:56:45.228Z,76.7
2022-11-18T08:57:45.636Z,77.28
2022-11-18T08:58:46.672Z,77.08
2022-11-18T08:59:46.366Z,76.57
2022-11-18T09:00:46.787Z,76.71
2022-11-18T09:01:47.567Z,77.2
2022-11-18T09:02:48.451Z,76.76
2022-11-18T09:03:49.062Z,76.69
2022-11-18T09:04:50.426Z,77.33
2022-11-18T09:05:50.511Z,78.06
2022-11-18T09:06:50.204Z,77.4
2022-11-18T09:07:50.226Z,77.28
2022-11-18T09:08:50.884Z,76.94
2022-11-18T09:09:51.154Z,77.16
2022-11-18T09:10:51.771Z,76.56
2022-11-18T09:11:52.193Z,77.32
2022-11-18T09:12:52.500Z,78.01
2022-11-18T09:15:06.480Z,77.1
2022-11-18T09:15:14.520Z,76.91
2022-11-18T09:16:01.838Z,77.27
2022-11-18T09:16:59.898Z,77.6
2022-11-18T09:18:00.410Z,77.15
2022-11-18T09:19:18.614Z,78.06
2022-11-18T09:20:05.852Z,78.46
2022-11-18T09:21:08.118Z,78.06
2022-11-18T09:22:06.581Z,77.74
2022-11-18T09:23:06.621Z,76.91
2022-11-18T09:24:07.825Z,78.16
2022-11-18T09:25:09.272Z,78.02
2022-11-18T09:26:11.635Z,77.72
2022-11-18T09:27:16.418Z,78.34
2022-11-18T09:28:10.326Z,79.19
2022-11-18T09:29:10.625Z,79.26
2022-11-18T09:30:11.672Z,79.25
2022-11-18T09:31:14.640Z,80.22
2022-11-18T09:32:12.791Z,79.44
2022-11-18T09:33:16.601Z,79.86
2022-11-18T09:34:12.959Z,80.24
2022-11-18T09:35:13.753Z,81.05
2022-11-18T09:36:16.513Z,81.35
2022-11-18T09:37:14.276Z,82.03
2022-11-18T09:38:14.980Z,81.55
2022-11-18T09:39:15.690Z,81.01
2022-11-18T09:40:18.067Z,80.89
2022-11-18T09:47:34.503Z,83.37
2022-11-18T09:48:32.263Z,83.5
2022-11-18T09:49:41.483Z,84.04
2022-11-18T09:50:49.133Z,83.48
2022-11-18T09:53:45.187Z,83.51
2022-11-18T09:54:42.941Z,84.56
2022-11-18T09:55:43.558Z,85.46
2022-11-18T09:56:44.111Z,85.74
2022-11-18T09:58:49.835Z,85.4
2022-11-18T09:59:49.729Z,85.41
2022-11-18T10:00:50.156Z,85.43
2022-11-18T10:01:53.163Z,85.76
2022-11-18T10:03:56.321Z,85.76
2022-11-18T10:07:06.862Z,85.19
2022-11-18T10:12:28.827Z,84.35
2022-11-18T10:18:59.817Z,83.84
2022-11-18T10:22:49.075Z,82.96
2022-11-18T10:24:50.321Z,83.34
2022-11-18T10:25:48.266Z,83.12
2022-11-18T10:26:54.821Z,82.72
2022-11-18T10:27:52.986Z,82.83
2022-11-18T10:28:52.993Z,82.83
2022-11-18T10:29:56.478Z,82.64
2022-11-18T10:30:54.104Z,82.7
2022-11-18T10:33:01.322Z,81.79
2022-11-18T10:34:01.425Z,81.64
2022-11-18T10:35:00.362Z,82.05
2022-11-18T10:37:08.507Z,81.81
2022-11-18T10:39:13.141Z,81.71
2022-11-18T10:40:25.476Z,81.62
2022-11-18T10:41:16.931Z,82.35
2022-11-18T10:47:33.258Z,81.88
2022-11-18T10:48:26.403Z,82.14
2022-11-18T10:49:26.812Z,81.88
2022-11-18T10:51:31.132Z,80.7
2022-11-18T10:52:31.445Z,81.04
2022-11-18T10:53:34.738Z,80.68
2022-11-18T10:54:32.789Z,81.01
2022-11-18T10:55:33.717Z,79.96
2022-11-18T10:57:43.766Z,79.58
2022-11-18T10:58:48.454Z,79.76
2022-11-18T10:59:52.899Z,79.39
2022-11-18T11:00:51.059Z,79.8
2022-11-18T11:02:56.090Z,79.63
2022-11-18T11:05:00.095Z,79.35
2022-11-18T11:12:18.896Z,77.2
2022-11-18T11:13:19.301Z,77.02
2022-11-18T11:16:30.273Z,77.27
2022-11-18T11:20:39.934Z,77.99
2022-11-18T11:21:39.625Z,78.42
2022-11-18T11:22:40.044Z,78.22
2022-11-18T11:23:41.280Z,78.25
2022-11-18T11:24:41.390Z,78.07
2022-11-18T11:41:25.419Z,75.71
2022-11-18T12:06:17.596Z,84.08
2022-11-18T12:19:54.660Z,81.3
2022-11-18T12:20:55.682Z,81.77
2022-11-18T12:21:57.536Z,81.83
2022-11-18T12:24:58.585Z,80.75
2022-11-18T12:28:05.153Z,80.72
2022-11-18T12:33:19.103Z,80.79
2022-11-18T12:35:27.627Z,81.07
2022-11-18T12:42:50.193Z,80.57
2022-11-18T12:44:41.302Z,80.22
2022-11-18T12:46:49.512Z,80.78
2022-11-18T12:48:49.925Z,81.67
2022-11-18T12:50:53.016Z,81.17
2022-11-18T12:52:51.890Z,80.99
2022-11-18T12:53:53.551Z,81.25
2022-11-18T12:54:52.949Z,80.47
2022-11-18T12:55:52.954Z,80.53
2022-11-18T12:56:53.879Z,80.76
2022-11-18T12:57:53.584Z,81.56
2022-11-18T12:58:59.310Z,81.52
2022-11-18T12:59:57.734Z,81.31
2022-11-18T13:03:02.633Z,81.8
2022-11-18T13:04:10.503Z,82.27
2022-11-18T13:07:13.560Z,82.51
2022-11-18T13:08:13.814Z,83.05
2022-11-18T13:10:28.462Z,83
2022-11-18T13:11:19.406Z,82.28
2022-11-18T13:12:19.671Z,82.72
2022-11-18T13:14:27.986Z,82.31
2022-11-18T13:15:26.660Z,82.14
2022-11-18T13:16:26.983Z,81.69
2022-11-18T13:17:35.274Z,82.05
2022-11-18T13:18:28.521Z,81.98
2022-11-18T13:19:28.838Z,82.67
2022-11-18T13:20:34.060Z,83.44
2022-11-18T13:21:32.230Z,82.68
2022-11-18T13:22:32.542Z,82.69
2022-11-18T13:23:33.563Z,83.45
2022-11-18T13:24:44.645Z,83.1
2022-11-18T13:25:38.095Z,82.86
2022-11-18T13:26:41.581Z,83.25
2022-11-18T13:32:54.415Z,84.6
2022-11-18T13:33:53.704Z,84.86
2022-11-18T13:34:58.737Z,84.87
2022-11-18T13:35:56.760Z,85.66
2022-11-18T13:36:59.971Z,85.67
2022-11-18T13:38:00.792Z,85.78
2022-11-18T13:39:04.632Z,84.91
2022-11-18T13:40:03.069Z,84.92
2022-11-18T13:41:03.166Z,84.74
2022-11-18T13:42:14.760Z,84.91
2022-11-18T13:43:11.991Z,84.76
2022-11-18T13:45:14.573Z,83.99
2022-11-18T13:46:18.972Z,84.32
2022-11-18T13:48:18.991Z,83.78
2022-11-18T13:49:27.184Z,83.84
2022-11-18T13:51:24.639Z,84.22
2022-11-18T13:53:36.236Z,83.94
2022-11-18T13:54:30.301Z,83.95
2022-11-18T13:55:34.195Z,83.96
2022-11-18T13:56:35.285Z,83.27
2022-11-18T13:57:36.659Z,83.16
2022-11-18T13:59:15.931Z,83.28
2022-11-18T13:59:35.258Z,83.66
2022-11-18T14:00:36.640Z,83.86
2022-11-18T14:01:36.085Z,83.92
2022-11-18T14:02:42.937Z,83.79
2022-11-18T14:05:54.015Z,84.11
2022-11-18T14:06:47.171Z,83.9
2022-11-18T14:08:48.715Z,83.1
2022-11-18T14:10:53.877Z,82.87
2022-11-18T14:13:00.413Z,82.4
2022-11-18T14:14:00.315Z,83
2022-11-18T14:20:18.170Z,83.62
2022-11-18T14:22:30.790Z,83.22
2022-11-18T14:23:35.312Z,83.26
2022-11-18T14:24:28.538Z,83.53
2022-11-18T14:25:35.214Z,83.35
2022-11-18T14:26:38.079Z,83.95
2022-11-18T14:27:50.068Z,83.57
2022-11-18T14:28:39.434Z,83.95
2022-11-18T14:29:38.623Z,83.86
2022-11-18T14:30:43.118Z,83.82
2022-11-18T14:31:41.290Z,83.5
2022-11-18T14:32:41.598Z,83.63
2022-11-18T14:33:42.015Z,83.88
2022-11-18T14:34:42.291Z,83.63
2022-11-18T14:35:45.710Z,84.16
2022-11-18T14:36:43.775Z,83.71
2022-11-18T14:37:44.195Z,83.83
2022-11-18T14:39:25.477Z,84.39
2022-11-18T14:41:52.202Z,84.94
2022-11-18T14:42:51.806Z,84.59
2022-11-18T14:43:52.221Z,84.74
2022-11-18T14:44:52.531Z,84.38
2022-11-18T14:45:57.981Z,84.53
2022-11-18T14:47:01.046Z,84.71
2022-11-18T14:47:59.307Z,84.72
2022-11-18T14:49:02.601Z,85.6
2022-11-18T14:50:01.281Z,86.71
2022-11-18T14:51:01.795Z,86.58
2022-11-18T14:52:01.690Z,86.68
2022-11-18T14:53:02.010Z,86.28
2022-11-18T14:54:02.535Z,86.36
2022-11-18T14:55:02.890Z,86.68
2022-11-18T14:56:03.161Z,87.5
2022-11-18T14:57:05.443Z,87.83
2022-11-18T14:58:04.294Z,88.2
2022-11-18T14:59:04.505Z,88.31
2022-11-18T15:00:06.576Z,88.19
2022-11-18T15:01:05.357Z,88.35
2022-11-18T15:02:05.664Z,88.5
2022-11-18T15:03:05.949Z,88.33
2022-11-18T15:04:06.173Z,88.08
2022-11-18T15:05:07.459Z,88.43
2022-11-18T15:06:21.247Z,88.47
2022-11-18T15:07:20.049Z,88.68
2022-11-18T15:08:09.996Z,88.64
2022-11-18T15:09:12.458Z,88.37
2022-11-18T15:10:16.865Z,88.69
2022-11-18T15:11:15.255Z,88.6
2022-11-18T15:12:15.348Z,88.53
2022-11-18T15:13:15.551Z,88.72
2022-11-18T15:14:16.540Z,89.09
2022-11-18T15:15:16.389Z,89.17
2022-11-18T15:16:28.103Z,88.96
2022-11-18T15:17:21.213Z,89.25
2022-11-18T15:18:21.828Z,89.5
2022-11-18T15:19:22.049Z,89.33
2022-11-18T15:20:25.030Z,89.6
2022-11-18T15:21:24.014Z,89.73
2022-11-18T15:22:23.706Z,89.68
2022-11-18T15:23:29.535Z,89.72
2022-11-18T15:24:28.163Z,89.89
2022-11-18T15:25:28.345Z,90.02
2022-11-18T15:26:34.896Z,90.09
2022-11-18T15:27:33.161Z,89.86
2022-11-18T15:28:33.466Z,89.87
2022-11-18T15:29:33.902Z,90.07
2022-11-18T15:30:34.312Z,90.06
2022-11-18T15:31:34.822Z,90.18
2022-11-18T15:32:35.236Z,90.07
2022-11-18T15:33:35.550Z,89.99
2022-11-18T15:34:35.968Z,90.17
2022-11-18T15:35:36.293Z,90.23
2022-11-18T15:36:36.796Z,90.13
2022-11-18T15:37:37.217Z,90.08
2022-11-18T15:38:37.556Z,90.03
2022-11-18T15:39:38.292Z,89.76
2022-11-18T15:40:38.258Z,89.54
2022-11-18T15:41:40.617Z,89.51
2022-11-18T15:42:48.795Z,89.16
2022-11-18T15:43:44.232Z,89.13
2022-11-18T15:44:44.446Z,89.57
2022-11-18T15:45:44.742Z,89.04
2022-11-18T15:46:45.269Z,88.85
2022-11-18T15:47:45.374Z,89.21
2022-11-18T15:48:46.536Z,89.09
2022-11-18T15:49:46.323Z,89.25
2022-11-18T15:50:46.512Z,89.37
2022-11-18T15:51:47.259Z,89.27
2022-11-18T15:52:47.446Z,89.25
2022-11-18T15:53:47.871Z,89.24
2022-11-18T15:54:48.077Z,89.19
2022-11-18T15:55:48.913Z,88.67
2022-11-18T15:56:49.110Z,88.35
2022-11-18T15:57:49.123Z,88.09
2022-11-18T15:59:52.720Z,87.75
2022-11-18T16:00:52.945Z,87.8
2022-11-18T16:01:56.626Z,87.82
2022-11-18T16:02:54.885Z,87.77
2022-11-18T16:03:55.817Z,87.58
2022-11-18T16:04:55.836Z,87.44
2022-11-18T16:05:56.046Z,87.27
2022-11-18T16:06:56.408Z,87.53
2022-11-18T16:07:56.565Z,87.84
2022-11-18T16:08:59.887Z,87.79
2022-11-18T16:09:58.415Z,87.95
2022-11-18T16:10:59.134Z,87.62
2022-11-18T16:11:59.155Z,86.9
2022-11-18T16:12:59.662Z,86.93
2022-11-18T16:15:04.793Z,86.91
2022-11-18T16:16:05.320Z,86.94
2022-11-18T16:17:04.807Z,87.14
2022-11-18T16:18:06.453Z,87.07
2022-11-18T16:19:08.404Z,87.22
2022-11-18T16:20:07.389Z,87.19
2022-11-18T16:21:06.883Z,86.81
2022-11-18T16:22:06.999Z,86.73
2022-11-18T16:23:07.407Z,87.18
2022-11-18T16:24:11.205Z,87.62
2022-11-18T16:25:09.889Z,87.7
2022-11-18T16:26:09.412Z,87.98
2022-11-18T16:27:09.895Z,87.92
2022-11-18T16:28:10.310Z,87.95
2022-11-18T16:29:12.381Z,87.63
2022-11-18T16:30:11.752Z,88.12
2022-11-18T16:31:11.560Z,88.48
2022-11-18T16:32:14.099Z,88.34
2022-11-18T16:33:12.401Z,88.41
2022-11-18T16:35:15.180Z,88.12
2022-11-18T16:36:15.491Z,87.92
2022-11-18T16:37:15.797Z,88.22
2022-11-18T16:38:16.317Z,87.99
2022-11-18T16:39:21.809Z,87.97
2022-11-18T16:40:19.915Z,88.23
2022-11-18T16:41:20.226Z,88.38
2022-11-18T16:42:20.650Z,88.25
2022-11-18T16:43:20.853Z,88.04
2022-11-18T16:44:21.677Z,88.22
2022-11-18T16:45:22.098Z,88.37
2022-11-18T16:46:22.099Z,88.37
2022-11-18T16:47:22.631Z,87.82
2022-11-18T16:48:23.350Z,87.64
2022-11-18T16:49:25.923Z,88.17